sensor_id;sensor_type;location;lat;lon;timestamp;pressure;altitude;pressure_sealevel;temperature;humidity
61026;BME280;46911;32.650;-16.902;2024-01-15T08:51:20;101339.91;;;18.59;100.00
61026;BME280;46911;32.650;-16.902;2024-01-15T08:53:26;101343.56;;;18.68;100.00
61026;BME280;46911;32.650;-16.902;2024-01-15T08:55:31;101322.53;;;18.71;100.00
61026;BME280;46911;32.650;-16.902;2024-01-15T08:57:33;101329.38;;;18.85;100.00
61026;BME280;46911;32.650;-16.902;2024-01-15T08:59:36;101336.03;;;19.11;100.00
61026;BME280;46911;32.650;-16.902;2024-01-15T09:01:39;101343.00;;;19.23;100.00
61026;BME280;46911;32.650;-16.902;2024-01-15T09:03:40;101345.94;;;19.39;100.00
61026;BME280;46911;32.650;-16.902;2024-01-15T09:05:46;101344.91;;;19.50;100.00
61026;BME280;46911;32.650;-16.902;2024-01-15T09:07:47;101342.47;;;19.57;100.00
61026;BME280;46911;32.650;-16.902;2024-01-15T09:09:53;101343.97;;;19.69;100.00
61026;BME280;46911;32.650;-16.902;2024-01-15T09:11:54;101360.31;;;19.87;100.00
61026;BME280;46911;32.650;-16.902;2024-01-15T09:13:57;101350.34;;;19.88;100.00
61026;BME280;46911;32.650;-16.902;2024-01-15T09:15:59;101349.44;;;19.97;100.00
61026;BME280;46911;32.650;-16.902;2024-01-15T09:18:03;101368.03;;;20.10;100.00
61026;BME280;46911;32.650;-16.902;2024-01-15T09:20:08;101351.56;;;20.03;100.00
61026;BME280;46911;32.650;-16.902;2024-01-15T09:22:12;101341.81;;;20.11;100.00
61026;BME280;46911;32.650;-16.902;2024-01-15T09:24:15;101352.03;;;20.17;100.00
61026;BME280;46911;32.650;-16.902;2024-01-15T09:26:22;101357.34;;;20.36;100.00
61026;BME280;46911;32.650;-16.902;2024-01-15T09:28:28;101360.06;;;20.54;100.00
61026;BME280;46911;32.650;-16.902;2024-01-15T09:30:32;101350.00;;;20.65;100.00
61026;BME280;46911;32.650;-16.902;2024-01-15T09:32:36;101349.25;;;20.72;100.00
61026;BME280;46911;32.650;-16.902;2024-01-15T09:34:37;101361.25;;;20.88;100.00
61026;BME280;46911;32.650;-16.902;2024-01-15T09:36:40;101367.75;;;20.95;100.00
61026;BME280;46911;32.650;-16.902;2024-01-15T09:38:42;101349.13;;;21.00;100.00
61026;BME280;46911;32.650;-16.902;2024-01-15T09:40:46;101360.34;;;21.23;100.00
61026;BME280;46911;32.650;-16.902;2024-01-15T09:42:50;101369.19;;;21.34;100.00
61026;BME280;46911;32.650;-16.902;2024-01-15T09:44:55;101365.59;;;21.25;100.00
61026;BME280;46911;32.650;-16.902;2024-01-15T09:46:57;101367.94;;;21.20;100.00
61026;BME280;46911;32.650;-16.902;2024-01-15T09:48:59;101320.19;;;20.83;100.00
61026;BME280;46911;32.650;-16.902;2024-01-15T09:51:03;101376.22;;;21.18;100.00
61026;BME280;46911;32.650;-16.902;2024-01-15T09:53:06;101355.75;;;21.24;99.98
61026;BME280;46911;32.650;-16.902;2024-01-15T09:55:08;101379.19;;;21.51;98.87
61026;BME280;46911;32.650;-16.902;2024-01-15T09:57:10;101357.91;;;21.65;98.22
61026;BME280;46911;32.650;-16.902;2024-01-15T09:59:15;101381.00;;;22.03;98.16
61026;BME280;46911;32.650;-16.902;2024-01-15T10:01:22;101370.31;;;22.53;95.60
61026;BME280;46911;32.650;-16.902;2024-01-15T10:03:26;101354.34;;;22.91;90.82
61026;BME280;46911;32.650;-16.902;2024-01-15T10:05:29;101356.16;;;23.56;89.22
61026;BME280;46911;32.650;-16.902;2024-01-15T10:07:35;101360.13;;;24.25;84.44
61026;BME280;46911;32.650;-16.902;2024-01-15T10:09:39;101357.22;;;25.43;82.25
61026;BME280;46911;32.650;-16.902;2024-01-15T10:11:47;101351.97;;;27.02;73.02
61026;BME280;46911;32.650;-16.902;2024-01-15T10:13:52;101351.88;;;28.36;66.92
61026;BME280;46911;32.650;-16.902;2024-01-15T10:15:54;101348.81;;;28.86;63.46
61026;BME280;46911;32.650;-16.902;2024-01-15T10:17:56;101353.25;;;28.73;61.26
61026;BME280;46911;32.650;-16.902;2024-01-15T10:19:57;101351.19;;;28.20;61.52
61026;BME280;46911;32.650;-16.902;2024-01-15T10:22:01;101349.69;;;27.69;62.99
61026;BME280;46911;32.650;-16.902;2024-01-15T10:24:05;101335.38;;;27.11;62.39
61026;BME280;46911;32.650;-16.902;2024-01-15T10:26:06;101351.69;;;26.97;63.80
61026;BME280;46911;32.650;-16.902;2024-01-15T10:28:13;101350.69;;;27.62;63.20
61026;BME280;46911;32.650;-16.902;2024-01-15T10:30:16;101336.44;;;27.73;59.18
61026;BME280;46911;32.650;-16.902;2024-01-15T10:32:20;101342.00;;;27.23;60.35
61026;BME280;46911;32.650;-16.902;2024-01-15T10:34:26;101351.25;;;26.94;61.43
61026;BME280;46911;32.650;-16.902;2024-01-15T10:36:27;101340.66;;;25.44;64.08
61026;BME280;46911;32.650;-16.902;2024-01-15T10:38:30;101340.34;;;25.01;66.35
61026;BME280;46911;32.650;-16.902;2024-01-15T10:40:31;101339.59;;;24.92;68.22
61026;BME280;46911;32.650;-16.902;2024-01-15T10:42:36;101359.31;;;24.48;70.34
61026;BME280;46911;32.650;-16.902;2024-01-15T10:44:41;101331.41;;;24.14;72.51
61026;BME280;46911;32.650;-16.902;2024-01-15T10:46:47;101343.66;;;24.73;72.66
61026;BME280;46911;32.650;-16.902;2024-01-15T10:48:48;101321.56;;;25.06;70.54
61026;BME280;46911;32.650;-16.902;2024-01-15T10:50:54;101329.00;;;25.12;69.97
61026;BME280;46911;32.650;-16.902;2024-01-15T10:52:56;101351.38;;;25.07;69.86
61026;BME280;46911;32.650;-16.902;2024-01-15T10:54:57;101342.56;;;24.82;69.96
61026;BME280;46911;32.650;-16.902;2024-01-15T10:57:02;101338.47;;;24.63;71.03
61026;BME280;46911;32.650;-16.902;2024-01-15T10:59:03;101353.94;;;24.39;71.77
61026;BME280;46911;32.650;-16.902;2024-01-15T11:01:04;101351.28;;;23.92;73.47
61026;BME280;46911;32.650;-16.902;2024-01-15T11:03:09;101357.69;;;23.59;75.33
61026;BME280;46911;32.650;-16.902;2024-01-15T11:05:13;101359.75;;;23.40;76.71
61026;BME280;46911;32.650;-16.902;2024-01-15T11:07:23;101365.22;;;22.83;80.66
61026;BME280;46911;32.650;-16.902;2024-01-15T11:09:24;101369.47;;;22.94;82.37
61026;BME280;46911;32.650;-16.902;2024-01-15T11:11:25;101361.78;;;21.97;87.31
61026;BME280;46911;32.650;-16.902;2024-01-15T11:18:01;101373.44;;;20.38;100.00
61026;BME280;46911;32.650;-16.902;2024-01-15T11:20:06;101405.72;;;20.31;100.00
61026;BME280;46911;32.650;-16.902;2024-01-15T11:22:09;101390.53;;;20.20;100.00
61026;BME280;46911;32.650;-16.902;2024-01-15T11:24:10;101401.78;;;20.71;100.00
61026;BME280;46911;32.650;-16.902;2024-01-15T11:28:54;101379.31;;;22.53;95.25
61026;BME280;46911;32.650;-16.902;2024-01-15T11:30:55;101397.81;;;22.58;92.00
61026;BME280;46911;32.650;-16.902;2024-01-15T11:32:58;101344.03;;;22.19;92.06
61026;BME280;46911;32.650;-16.902;2024-01-15T11:35:03;101400.06;;;22.79;90.95
61026;BME280;46911;32.650;-16.902;2024-01-15T11:37:06;101394.16;;;23.17;87.97
61026;BME280;46911;32.650;-16.902;2024-01-15T11:41:27;101377.28;;;23.54;85.90
61026;BME280;46911;32.650;-16.902;2024-01-15T11:43:31;101394.16;;;24.06;84.21
61026;BME280;46911;32.650;-16.902;2024-01-15T11:45:34;101391.56;;;24.44;81.13
61026;BME280;46911;32.650;-16.902;2024-01-15T11:50:03;101405.69;;;24.48;79.84
61026;BME280;46911;32.650;-16.902;2024-01-15T11:52:13;101392.66;;;25.66;78.69
61026;BME280;46911;32.650;-16.902;2024-01-15T11:54:38;101385.34;;;26.91;72.71
61026;BME280;46911;32.650;-16.902;2024-01-15T11:56:41;101398.16;;;27.62;69.30
61026;BME280;46911;32.650;-16.902;2024-01-15T11:58:44;101405.31;;;27.63;66.30
61026;BME280;46911;32.650;-16.902;2024-01-15T12:00:51;101400.84;;;26.11;71.78
61026;BME280;46911;32.650;-16.902;2024-01-15T12:02:58;101382.38;;;25.98;73.43
61026;BME280;46911;32.650;-16.902;2024-01-15T12:05:00;101386.16;;;25.29;76.57
61026;BME280;46911;32.650;-16.902;2024-01-15T12:07:01;101385.28;;;25.13;79.04
61026;BME280;46911;32.650;-16.902;2024-01-15T12:09:06;101363.78;;;24.95;79.68
61026;BME280;46911;32.650;-16.902;2024-01-15T12:11:11;101381.09;;;25.26;79.12
61026;BME280;46911;32.650;-16.902;2024-01-15T12:13:15;101380.47;;;25.38;79.32
61026;BME280;46911;32.650;-16.902;2024-01-15T12:15:18;101361.25;;;24.94;77.58
61026;BME280;46911;32.650;-16.902;2024-01-15T12:17:19;101377.56;;;24.79;78.90
61026;BME280;46911;32.650;-16.902;2024-01-15T12:19:22;101360.91;;;24.42;79.91
61026;BME280;46911;32.650;-16.902;2024-01-15T12:21:28;101335.44;;;23.95;81.35
61026;BME280;46911;32.650;-16.902;2024-01-15T12:23:29;101345.47;;;23.86;80.79
61026;BME280;46911;32.650;-16.902;2024-01-15T12:25:36;101327.34;;;23.62;81.66
61026;BME280;46911;32.650;-16.902;2024-01-15T12:27:42;101339.06;;;23.79;82.00
61026;BME280;46911;32.650;-16.902;2024-01-15T12:29:49;101334.28;;;23.81;82.32
61026;BME280;46911;32.650;-16.902;2024-01-15T12:31:53;101312.38;;;23.66;82.70
61026;BME280;46911;32.650;-16.902;2024-01-15T12:33:59;101314.94;;;23.60;82.26
61026;BME280;46911;32.650;-16.902;2024-01-15T12:36:02;101324.72;;;23.37;83.47
61026;BME280;46911;32.650;-16.902;2024-01-15T12:38:05;101330.91;;;23.15;84.43
61026;BME280;46911;32.650;-16.902;2024-01-15T12:40:08;101318.28;;;22.81;82.04
61026;BME280;46911;32.650;-16.902;2024-01-15T12:42:10;101314.91;;;22.79;83.03
61026;BME280;46911;32.650;-16.902;2024-01-15T12:44:13;101322.34;;;22.35;86.52
61026;BME280;46911;32.650;-16.902;2024-01-15T12:46:14;101298.53;;;22.21;86.48
61026;BME280;46911;32.650;-16.902;2024-01-15T12:48:20;101316.25;;;22.42;86.15
61026;BME280;46911;32.650;-16.902;2024-01-15T12:50:24;101309.28;;;22.39;86.19
61026;BME280;46911;32.650;-16.902;2024-01-15T12:52:29;101309.81;;;22.51;85.32
61026;BME280;46911;32.650;-16.902;2024-01-15T12:54:30;101265.78;;;22.47;84.68
61026;BME280;46911;32.650;-16.902;2024-01-15T12:56:33;101301.81;;;22.74;84.42
61026;BME280;46911;32.650;-16.902;2024-01-15T12:58:34;101305.72;;;22.88;85.00
61026;BME280;46911;32.650;-16.902;2024-01-15T13:00:37;101296.88;;;22.94;84.15
61026;BME280;46911;32.650;-16.902;2024-01-15T13:02:42;101297.75;;;22.86;84.49
61026;BME280;46911;32.650;-16.902;2024-01-15T13:04:46;101281.06;;;22.89;84.90
61026;BME280;46911;32.650;-16.902;2024-01-15T13:06:47;101289.38;;;23.04;84.85
61026;BME280;46911;32.650;-16.902;2024-01-15T13:08:49;101295.00;;;23.03;84.78
61026;BME280;46911;32.650;-16.902;2024-01-15T13:10:53;101283.25;;;23.11;84.46
61026;BME280;46911;32.650;-16.902;2024-01-15T13:12:57;101279.75;;;22.69;86.42
61026;BME280;46911;32.650;-16.902;2024-01-15T13:15:00;101271.91;;;22.90;86.53
61026;BME280;46911;32.650;-16.902;2024-01-15T13:17:04;101267.28;;;22.91;86.22
61026;BME280;46911;32.650;-16.902;2024-01-15T13:19:10;101253.00;;;23.14;85.43
61026;BME280;46911;32.650;-16.902;2024-01-15T13:21:14;101232.53;;;23.26;84.43
61026;BME280;46911;32.650;-16.902;2024-01-15T13:23:21;101231.13;;;23.47;84.13
61026;BME280;46911;32.650;-16.902;2024-01-15T13:25:24;101248.63;;;23.84;82.95
61026;BME280;46911;32.650;-16.902;2024-01-15T13:27:31;101245.84;;;24.00;82.19
61026;BME280;46911;32.650;-16.902;2024-01-15T13:29:31;101221.97;;;23.71;83.21
61026;BME280;46911;32.650;-16.902;2024-01-15T13:31:35;101241.59;;;24.21;81.53
61026;BME280;46911;32.650;-16.902;2024-01-15T13:33:36;101218.09;;;24.43;80.49
61026;BME280;46911;32.650;-16.902;2024-01-15T13:35:37;101222.81;;;24.49;79.75
61026;BME280;46911;32.650;-16.902;2024-01-15T13:37:38;101238.34;;;24.26;80.27
61026;BME280;46911;32.650;-16.902;2024-01-15T13:39:42;101220.34;;;23.93;82.40
61026;BME280;46911;32.650;-16.902;2024-01-15T13:41:49;101232.50;;;23.43;85.03
61026;BME280;46911;32.650;-16.902;2024-01-15T13:43:53;101215.44;;;23.49;85.43
61026;BME280;46911;32.650;-16.902;2024-01-15T13:45:57;101220.34;;;23.85;84.89
61026;BME280;46911;32.650;-16.902;2024-01-15T13:48:01;101204.25;;;24.45;80.77
61026;BME280;46911;32.650;-16.902;2024-01-15T13:50:06;101220.38;;;25.07;78.32
61026;BME280;46911;32.650;-16.902;2024-01-15T13:52:10;101211.13;;;25.53;75.63
61026;BME280;46911;32.650;-16.902;2024-01-15T13:54:11;101197.78;;;25.44;74.29
61026;BME280;46911;32.650;-16.902;2024-01-15T13:56:12;101209.34;;;25.16;75.63
61026;BME280;46911;32.650;-16.902;2024-01-15T13:58:13;101214.09;;;24.07;80.09
61026;BME280;46911;32.650;-16.902;2024-01-15T14:00:14;101212.66;;;23.57;82.79
61026;BME280;46911;32.650;-16.902;2024-01-15T14:02:20;101218.13;;;23.17;86.13
61026;BME280;46911;32.650;-16.902;2024-01-15T14:04:23;101189.41;;;22.90;88.09
61026;BME280;46911;32.650;-16.902;2024-01-15T14:06:27;101194.44;;;23.26;86.59
61026;BME280;46911;32.650;-16.902;2024-01-15T14:08:30;101208.63;;;23.05;88.76
61026;BME280;46911;32.650;-16.902;2024-01-15T14:10:33;101192.38;;;22.64;91.85
61026;BME280;46911;32.650;-16.902;2024-01-15T14:12:34;101193.88;;;22.83;91.64
61026;BME280;46911;32.650;-16.902;2024-01-15T14:14:40;101186.44;;;22.52;94.02
61026;BME280;46911;32.650;-16.902;2024-01-15T14:16:42;101183.28;;;22.96;91.58
61026;BME280;46911;32.650;-16.902;2024-01-15T14:18:49;101181.31;;;22.73;92.86
61026;BME280;46911;32.650;-16.902;2024-01-15T14:20:52;101160.72;;;22.79;91.35
61026;BME280;46911;32.650;-16.902;2024-01-15T14:22:54;101150.50;;;22.89;90.54
61026;BME280;46911;32.650;-16.902;2024-01-15T14:24:57;101145.41;;;22.78;92.09
61026;BME280;46911;32.650;-16.902;2024-01-15T14:26:58;101155.66;;;22.76;91.59
61026;BME280;46911;32.650;-16.902;2024-01-15T14:29:04;101153.47;;;22.22;93.44
61026;BME280;46911;32.650;-16.902;2024-01-15T14:31:06;101155.16;;;22.23;93.53
61026;BME280;46911;32.650;-16.902;2024-01-15T14:33:07;101147.88;;;21.99;95.14
61026;BME280;46911;32.650;-16.902;2024-01-15T14:35:14;101143.63;;;22.04;95.34
61026;BME280;46911;32.650;-16.902;2024-01-15T14:37:17;101147.53;;;22.18;95.21
61026;BME280;46911;32.650;-16.902;2024-01-15T14:39:18;101122.59;;;21.90;95.96
61026;BME280;46911;32.650;-16.902;2024-01-15T14:41:21;101144.97;;;22.08;95.97
61026;BME280;46911;32.650;-16.902;2024-01-15T14:43:22;101134.28;;;22.48;93.58
61026;BME280;46911;32.650;-16.902;2024-01-15T14:45:25;101126.91;;;22.73;92.48
61026;BME280;46911;32.650;-16.902;2024-01-15T14:47:28;101139.22;;;23.09;90.69
61026;BME280;46911;32.650;-16.902;2024-01-15T14:49:31;101148.94;;;23.74;87.08
61026;BME280;46911;32.650;-16.902;2024-01-15T14:51:34;101141.97;;;23.95;84.90
61026;BME280;46911;32.650;-16.902;2024-01-15T14:53:35;101137.84;;;23.45;87.19
61026;BME280;46911;32.650;-16.902;2024-01-15T14:55:36;101141.94;;;23.17;88.74
61026;BME280;46911;32.650;-16.902;2024-01-15T14:57:37;101141.22;;;22.76;89.86
61026;BME280;46911;32.650;-16.902;2024-01-15T14:59:38;101144.06;;;22.82;91.14
61026;BME280;46911;32.650;-16.902;2024-01-15T15:01:39;101138.16;;;22.70;91.42
61026;BME280;46911;32.650;-16.902;2024-01-15T15:03:40;101128.34;;;22.53;91.50
61026;BME280;46911;32.650;-16.902;2024-01-15T15:05:41;101142.94;;;22.60;91.87
61026;BME280;46911;32.650;-16.902;2024-01-15T15:07:43;101139.72;;;22.15;94.64
61026;BME280;46911;32.650;-16.902;2024-01-15T15:09:44;101143.13;;;22.09;96.77
61026;BME280;46911;32.650;-16.902;2024-01-15T15:11:48;101117.81;;;22.42;94.17
61026;BME280;46911;32.650;-16.902;2024-01-15T15:13:49;101140.16;;;22.77;92.73
61026;BME280;46911;32.650;-16.902;2024-01-15T15:15:58;101112.44;;;23.29;89.38
61026;BME280;46911;32.650;-16.902;2024-01-15T15:18:01;101122.09;;;23.63;87.20
61026;BME280;46911;32.650;-16.902;2024-01-15T15:20:03;101118.47;;;23.71;86.08
61026;BME280;46911;32.650;-16.902;2024-01-15T15:22:07;101101.72;;;22.88;90.11
61026;BME280;46911;32.650;-16.902;2024-01-15T15:24:10;101113.41;;;22.97;90.22
61026;BME280;46911;32.650;-16.902;2024-01-15T15:26:14;101092.72;;;23.50;88.40
61026;BME280;46911;32.650;-16.902;2024-01-15T15:28:15;101095.56;;;24.42;83.17
61026;BME280;46911;32.650;-16.902;2024-01-15T15:30:19;101090.03;;;25.10;78.90
61026;BME280;46911;32.650;-16.902;2024-01-15T15:32:24;101102.75;;;25.24;76.44
61026;BME280;46911;32.650;-16.902;2024-01-15T15:34:25;101099.13;;;25.17;76.51
61026;BME280;46911;32.650;-16.902;2024-01-15T15:36:28;101087.81;;;25.20;75.89
61026;BME280;46911;32.650;-16.902;2024-01-15T15:38:36;101092.75;;;24.95;76.45
61026;BME280;46911;32.650;-16.902;2024-01-15T15:40:39;101103.84;;;24.93;77.37
61026;BME280;46911;32.650;-16.902;2024-01-15T15:42:43;101106.28;;;24.58;77.62
61026;BME280;46911;32.650;-16.902;2024-01-15T15:44:46;101101.59;;;23.99;79.83
61026;BME280;46911;32.650;-16.902;2024-01-15T15:46:48;101104.50;;;23.97;81.22
61026;BME280;46911;32.650;-16.902;2024-01-15T15:48:49;101113.22;;;23.93;81.56
61026;BME280;46911;32.650;-16.902;2024-01-15T15:50:55;101122.78;;;23.34;84.03
61026;BME280;46911;32.650;-16.902;2024-01-15T15:52:59;101118.94;;;23.51;84.47
61026;BME280;46911;32.650;-16.902;2024-01-15T15:55:07;101092.56;;;23.20;85.09
61026;BME280;46911;32.650;-16.902;2024-01-15T15:57:08;101104.28;;;24.37;80.01
61026;BME280;46911;32.650;-16.902;2024-01-15T15:59:09;101094.13;;;25.35;74.06
61026;BME280;46911;32.650;-16.902;2024-01-15T16:01:16;101103.44;;;27.66;66.27
61026;BME280;46911;32.650;-16.902;2024-01-15T16:03:20;101104.13;;;28.22;61.86
61026;BME280;46911;32.650;-16.902;2024-01-15T16:05:20;101106.75;;;27.42;63.73
61026;BME280;46911;32.650;-16.902;2024-01-15T16:07:24;101122.53;;;26.56;67.37
61026;BME280;46911;32.650;-16.902;2024-01-15T16:09:31;101117.88;;;24.90;73.15
61026;BME280;46911;32.650;-16.902;2024-01-15T16:11:36;101119.97;;;23.73;79.37
61026;BME280;46911;32.650;-16.902;2024-01-15T16:13:38;101129.47;;;23.54;81.59
61026;BME280;46911;32.650;-16.902;2024-01-15T16:15:41;101127.31;;;23.18;83.66
61026;BME280;46911;32.650;-16.902;2024-01-15T16:17:45;101122.38;;;22.57;87.13
61026;BME280;46911;32.650;-16.902;2024-01-15T16:19:48;101121.53;;;21.99;90.89
61026;BME280;46911;32.650;-16.902;2024-01-15T16:21:49;101112.66;;;21.48;94.83
61026;BME280;46911;32.650;-16.902;2024-01-15T16:23:54;101127.16;;;21.65;95.79
61026;BME280;46911;32.650;-16.902;2024-01-15T16:25:57;101115.63;;;21.20;97.71
61026;BME280;46911;32.650;-16.902;2024-01-15T16:28:04;101116.91;;;20.99;100.00
61026;BME280;46911;32.650;-16.902;2024-01-15T16:30:11;101131.84;;;21.03;100.00
61026;BME280;46911;32.650;-16.902;2024-01-15T16:32:13;101110.16;;;21.03;100.00
61026;BME280;46911;32.650;-16.902;2024-01-15T16:34:15;101135.97;;;21.16;100.00
61026;BME280;46911;32.650;-16.902;2024-01-15T16:36:22;101124.28;;;21.15;100.00
61026;BME280;46911;32.650;-16.902;2024-01-15T16:38:28;101111.38;;;21.17;100.00
61026;BME280;46911;32.650;-16.902;2024-01-15T16:40:29;101060.28;;;20.96;100.00
61026;BME280;46911;32.650;-16.902;2024-01-15T16:42:35;101054.41;;;21.09;100.00
61026;BME280;46911;32.650;-16.902;2024-01-15T16:44:36;101041.84;;;21.08;100.00
61026;BME280;46911;32.650;-16.902;2024-01-15T16:46:44;101052.88;;;21.23;100.00
61026;BME280;46911;32.650;-16.902;2024-01-15T16:48:46;101047.63;;;21.13;100.00
61026;BME280;46911;32.650;-16.902;2024-01-15T16:50:47;101064.09;;;21.20;100.00
61026;BME280;46911;32.650;-16.902;2024-01-15T16:52:51;101080.38;;;21.20;100.00
61026;BME280;46911;32.650;-16.902;2024-01-15T16:54:54;101077.28;;;21.06;100.00
61026;BME280;46911;32.650;-16.902;2024-01-15T16:56:57;101083.88;;;21.04;100.00
61026;BME280;46911;32.650;-16.902;2024-01-15T16:59:00;101062.13;;;20.87;100.00
61026;BME280;46911;32.650;-16.902;2024-01-15T17:01:04;101071.88;;;21.15;100.00
61026;BME280;46911;32.650;-16.902;2024-01-15T17:03:08;101055.56;;;21.06;100.00
61026;BME280;46911;32.650;-16.902;2024-01-15T17:05:12;101064.72;;;21.05;100.00
61026;BME280;46911;32.650;-16.902;2024-01-15T17:07:18;101089.84;;;21.16;100.00
61026;BME280;46911;32.650;-16.902;2024-01-15T17:09:24;101081.97;;;20.96;100.00
61026;BME280;46911;32.650;-16.902;2024-01-15T17:11:29;101097.78;;;21.01;100.00
61026;BME280;46911;32.650;-16.902;2024-01-15T17:13:32;101088.06;;;20.90;100.00
61026;BME280;46911;32.650;-16.902;2024-01-15T17:15:37;101077.66;;;20.77;100.00
61026;BME280;46911;32.650;-16.902;2024-01-15T17:17:40;101062.13;;;20.61;100.00
61026;BME280;46911;32.650;-16.902;2024-01-15T17:19:41;101059.19;;;20.46;100.00
61026;BME280;46911;32.650;-16.902;2024-01-15T17:21:47;101063.78;;;20.46;100.00
61026;BME280;46911;32.650;-16.902;2024-01-15T17:23:53;101088.00;;;20.47;100.00
61026;BME280;46911;32.650;-16.902;2024-01-15T17:25:57;101069.63;;;20.33;100.00
61026;BME280;46911;32.650;-16.902;2024-01-15T17:27:58;101083.53;;;20.38;100.00
61026;BME280;46911;32.650;-16.902;2024-01-15T17:30:02;101112.38;;;20.47;100.00
61026;BME280;46911;32.650;-16.902;2024-01-15T17:32:05;101102.72;;;20.45;100.00
61026;BME280;46911;32.650;-16.902;2024-01-15T17:34:07;101135.94;;;20.55;100.00
61026;BME280;46911;32.650;-16.902;2024-01-15T17:36:08;101133.91;;;20.49;100.00
61026;BME280;46911;32.650;-16.902;2024-01-15T17:38:09;101124.41;;;20.27;100.00
61026;BME280;46911;32.650;-16.902;2024-01-15T17:40:13;101139.41;;;20.39;100.00
61026;BME280;46911;32.650;-16.902;2024-01-15T17:42:16;101100.59;;;20.30;100.00
61026;BME280;46911;32.650;-16.902;2024-01-15T17:44:22;101117.66;;;20.31;100.00
61026;BME280;46911;32.650;-16.902;2024-01-15T17:46:28;101087.44;;;20.17;100.00
61026;BME280;46911;32.650;-16.902;2024-01-15T17:48:31;101081.19;;;20.17;100.00
61026;BME280;46911;32.650;-16.902;2024-01-15T17:50:32;101063.56;;;20.13;100.00
61026;BME280;46911;32.650;-16.902;2024-01-15T17:52:33;101082.91;;;20.18;100.00
61026;BME280;46911;32.650;-16.902;2024-01-15T17:54:34;101101.19;;;20.24;100.00
61026;BME280;46911;32.650;-16.902;2024-01-15T17:56:38;101095.91;;;20.14;100.00
61026;BME280;46911;32.650;-16.902;2024-01-15T17:58:39;101103.53;;;20.19;100.00
61026;BME280;46911;32.650;-16.902;2024-01-15T18:00:43;101085.56;;;20.10;100.00
61026;BME280;46911;32.650;-16.902;2024-01-15T18:02:45;101104.06;;;20.22;100.00
61026;BME280;46911;32.650;-16.902;2024-01-15T18:04:49;101067.47;;;20.18;100.00
61026;BME280;46911;32.650;-16.902;2024-01-15T18:06:50;101076.81;;;20.24;100.00
61026;BME280;46911;32.650;-16.902;2024-01-15T18:08:52;101040.25;;;19.94;100.00
61026;BME280;46911;32.650;-16.902;2024-01-15T18:10:55;101083.28;;;20.23;100.00
61026;BME280;46911;32.650;-16.902;2024-01-15T18:12:58;101048.81;;;20.07;100.00
61026;BME280;46911;32.650;-16.902;2024-01-15T18:15:03;101075.88;;;20.07;100.00
61026;BME280;46911;32.650;-16.902;2024-01-15T18:17:04;101088.47;;;20.16;100.00
61026;BME280;46911;32.650;-16.902;2024-01-15T18:19:07;101077.78;;;20.15;100.00
61026;BME280;46911;32.650;-16.902;2024-01-15T18:21:08;101084.34;;;20.12;100.00
61026;BME280;46911;32.650;-16.902;2024-01-15T18:23:09;101101.94;;;20.08;100.00
61026;BME280;46911;32.650;-16.902;2024-01-15T18:25:10;101110.59;;;20.12;100.00
61026;BME280;46911;32.650;-16.902;2024-01-15T18:27:17;101133.91;;;20.04;100.00
61026;BME280;46911;32.650;-16.902;2024-01-15T18:29:20;101170.03;;;20.13;100.00
61026;BME280;46911;32.650;-16.902;2024-01-15T18:31:22;101172.50;;;20.06;100.00
61026;BME280;46911;32.650;-16.902;2024-01-15T18:33:23;101157.03;;;19.99;100.00
61026;BME280;46911;32.650;-16.902;2024-01-15T18:35:29;101181.72;;;20.14;100.00
61026;BME280;46911;32.650;-16.902;2024-01-15T18:37:32;101178.84;;;20.15;100.00
61026;BME280;46911;32.650;-16.902;2024-01-15T18:39:38;101166.25;;;20.06;100.00
61026;BME280;46911;32.650;-16.902;2024-01-15T18:41:38;101174.44;;;20.14;100.00
61026;BME280;46911;32.650;-16.902;2024-01-15T18:43:41;101170.88;;;20.14;100.00
61026;BME280;46911;32.650;-16.902;2024-01-15T18:45:45;101156.41;;;20.05;100.00
61026;BME280;46911;32.650;-16.902;2024-01-15T18:47:46;101153.09;;;20.11;100.00
61026;BME280;46911;32.650;-16.902;2024-01-15T18:49:49;101150.91;;;20.15;100.00
61026;BME280;46911;32.650;-16.902;2024-01-15T18:51:52;101148.75;;;20.18;100.00
61026;BME280;46911;32.650;-16.902;2024-01-15T18:54:00;101119.72;;;20.11;100.00
61026;BME280;46911;32.650;-16.902;2024-01-15T18:56:01;101124.53;;;20.17;100.00
61026;BME280;46911;32.650;-16.902;2024-01-15T18:58:05;101111.59;;;20.11;100.00
61026;BME280;46911;32.650;-16.902;2024-01-15T19:00:11;101110.66;;;20.20;100.00
61026;BME280;46911;32.650;-16.902;2024-01-15T19:02:12;101097.38;;;20.09;100.00
61026;BME280;46911;32.650;-16.902;2024-01-15T19:04:13;101111.97;;;20.16;100.00
61026;BME280;46911;32.650;-16.902;2024-01-15T19:06:18;101118.31;;;20.24;100.00
61026;BME280;46911;32.650;-16.902;2024-01-15T19:08:19;101122.25;;;20.30;100.00
61026;BME280;46911;32.650;-16.902;2024-01-15T19:10:19;101107.78;;;20.21;100.00
61026;BME280;46911;32.650;-16.902;2024-01-15T19:12:23;101131.00;;;20.24;100.00
61026;BME280;46911;32.650;-16.902;2024-01-15T19:14:23;101159.63;;;20.27;100.00
61026;BME280;46911;32.650;-16.902;2024-01-15T19:16:27;101152.59;;;20.34;100.00
61026;BME280;46911;32.650;-16.902;2024-01-15T19:18:31;101119.44;;;20.14;100.00
61026;BME280;46911;32.650;-16.902;2024-01-15T19:20:35;101154.38;;;20.25;100.00
61026;BME280;46911;32.650;-16.902;2024-01-15T19:22:35;101117.41;;;20.16;100.00
61026;BME280;46911;32.650;-16.902;2024-01-15T19:24:36;101136.41;;;20.24;100.00
61026;BME280;46911;32.650;-16.902;2024-01-15T19:26:41;101146.88;;;20.19;100.00